sensor_id;sensor_type;location;lat;lon;timestamp;P1;durP1;ratioP1;P2;durP2;ratioP2
33268;SDS011;19640;50.944;5.260;2022-12-07T00:01:32;17.52;;;12.25;;
33268;SDS011;19640;50.944;5.260;2022-12-07T00:03:50;14.13;;;11.55;;
33268;SDS011;19640;50.944;5.260;2022-12-07T00:06:18;17.70;;;13.10;;
33268;SDS011;19640;50.944;5.260;2022-12-07T00:08:44;13.13;;;11.73;;
33268;SDS011;19640;50.944;5.260;2022-12-07T00:11:18;16.25;;;12.73;;
33268;SDS011;19640;50.944;5.260;2022-12-07T00:13:45;19.77;;;12.73;;
33268;SDS011;19640;50.944;5.260;2022-12-07T00:16:12;15.63;;;12.10;;
33268;SDS011;19640;50.944;5.260;2022-12-07T00:18:44;15.55;;;12.88;;
33268;SDS011;19640;50.944;5.260;2022-12-07T00:21:12;14.02;;;12.52;;
33268;SDS011;19640;50.944;5.260;2022-12-07T00:23:40;13.98;;;12.18;;
33268;SDS011;19640;50.944;5.260;2022-12-07T00:26:07;16.92;;;11.07;;
33268;SDS011;19640;50.944;5.260;2022-12-07T00:28:53;15.93;;;11.48;;
33268;SDS011;19640;50.944;5.260;2022-12-07T00:31:21;17.27;;;11.63;;
33268;SDS011;19640;50.944;5.260;2022-12-07T00:33:48;14.10;;;10.80;;
33268;SDS011;19640;50.944;5.260;2022-12-07T00:36:15;15.32;;;11.45;;
33268;SDS011;19640;50.944;5.260;2022-12-07T00:38:43;12.95;;;11.50;;
33268;SDS011;19640;50.944;5.260;2022-12-07T00:43:37;16.25;;;11.70;;
33268;SDS011;19640;50.944;5.260;2022-12-07T00:46:04;17.33;;;12.65;;
33268;SDS011;19640;50.944;5.260;2022-12-07T00:48:30;20.92;;;12.43;;
33268;SDS011;19640;50.944;5.260;2022-12-07T00:50:55;17.02;;;13.10;;
33268;SDS011;19640;50.944;5.260;2022-12-07T00:53:22;18.98;;;12.93;;
33268;SDS011;19640;50.944;5.260;2022-12-07T00:55:48;22.90;;;13.50;;
33268;SDS011;19640;50.944;5.260;2022-12-07T00:58:14;18.23;;;13.27;;
33268;SDS011;19640;50.944;5.260;2022-12-07T01:00:40;21.10;;;12.93;;
33268;SDS011;19640;50.944;5.260;2022-12-07T01:03:08;16.45;;;13.10;;
33268;SDS011;19640;50.944;5.260;2022-12-07T01:05:36;16.48;;;13.73;;
33268;SDS011;19640;50.944;5.260;2022-12-07T01:08:02;23.23;;;13.43;;
33268;SDS011;19640;50.944;5.260;2022-12-07T01:10:28;20.58;;;13.32;;
33268;SDS011;19640;50.944;5.260;2022-12-07T01:12:55;16.98;;;14.00;;
33268;SDS011;19640;50.944;5.260;2022-12-07T01:15:21;18.70;;;14.05;;
33268;SDS011;19640;50.944;5.260;2022-12-07T01:17:47;18.73;;;14.70;;
33268;SDS011;19640;50.944;5.260;2022-12-07T01:20:13;24.23;;;15.45;;
33268;SDS011;19640;50.944;5.260;2022-12-07T01:22:39;21.75;;;15.18;;
33268;SDS011;19640;50.944;5.260;2022-12-07T01:25:06;19.20;;;15.55;;
33268;SDS011;19640;50.944;5.260;2022-12-07T01:27:33;20.77;;;15.00;;
33268;SDS011;19640;50.944;5.260;2022-12-07T01:29:59;27.35;;;16.52;;
33268;SDS011;19640;50.944;5.260;2022-12-07T01:32:25;17.45;;;13.57;;
33268;SDS011;19640;50.944;5.260;2022-12-07T01:34:50;18.00;;;14.85;;
33268;SDS011;19640;50.944;5.260;2022-12-07T01:37:16;17.15;;;14.07;;
33268;SDS011;19640;50.944;5.260;2022-12-07T01:39:41;24.50;;;14.55;;
33268;SDS011;19640;50.944;5.260;2022-12-07T01:42:10;24.38;;;16.05;;
33268;SDS011;19640;50.944;5.260;2022-12-07T01:47:40;16.95;;;12.82;;
33268;SDS011;19640;50.944;5.260;2022-12-07T01:50:07;28.70;;;13.88;;
33268;SDS011;19640;50.944;5.260;2022-12-07T01:52:33;26.42;;;13.38;;
33268;SDS011;19640;50.944;5.260;2022-12-07T01:55:06;16.55;;;13.43;;
33268;SDS011;19640;50.944;5.260;2022-12-07T01:57:34;15.63;;;14.02;;
33268;SDS011;19640;50.944;5.260;2022-12-07T02:00:05;16.55;;;14.15;;
33268;SDS011;19640;50.944;5.260;2022-12-07T02:02:33;13.60;;;12.15;;
33268;SDS011;19640;50.944;5.260;2022-12-07T02:05:03;17.03;;;12.83;;
33268;SDS011;19640;50.944;5.260;2022-12-07T02:07:29;17.45;;;12.10;;
33268;SDS011;19640;50.944;5.260;2022-12-07T02:10:11;16.58;;;11.10;;
33268;SDS011;19640;50.944;5.260;2022-12-07T02:12:37;17.33;;;12.55;;
33268;SDS011;19640;50.944;5.260;2022-12-07T02:15:03;16.27;;;13.50;;
33268;SDS011;19640;50.944;5.260;2022-12-07T02:17:34;17.25;;;13.65;;
33268;SDS011;19640;50.944;5.260;2022-12-07T02:31:04;18.65;;;12.63;;
33268;SDS011;19640;50.944;5.260;2022-12-07T02:33:36;21.77;;;14.07;;
33268;SDS011;19640;50.944;5.260;2022-12-07T02:36:16;18.25;;;14.25;;
33268;SDS011;19640;50.944;5.260;2022-12-07T02:38:59;21.60;;;15.35;;
33268;SDS011;19640;50.944;5.260;2022-12-07T02:41:48;22.50;;;15.30;;
33268;SDS011;19640;50.944;5.260;2022-12-07T02:44:23;21.50;;;14.85;;
33268;SDS011;19640;50.944;5.260;2022-12-07T02:46:52;20.52;;;13.77;;
33268;SDS011;19640;50.944;5.260;2022-12-07T02:49:23;17.95;;;13.93;;
33268;SDS011;19640;50.944;5.260;2022-12-07T02:51:51;16.15;;;13.38;;
33268;SDS011;19640;50.944;5.260;2022-12-07T02:54:18;23.08;;;14.15;;
33268;SDS011;19640;50.944;5.260;2022-12-07T02:57:00;20.20;;;15.25;;
33268;SDS011;19640;50.944;5.260;2022-12-07T03:02:08;20.13;;;15.70;;
33268;SDS011;19640;50.944;5.260;2022-12-07T03:10:24;21.77;;;15.65;;
33268;SDS011;19640;50.944;5.260;2022-12-07T03:18:45;24.60;;;14.77;;
33268;SDS011;19640;50.944;5.260;2022-12-07T03:21:14;19.63;;;15.93;;
33268;SDS011;19640;50.944;5.260;2022-12-07T03:23:48;22.27;;;15.93;;
33268;SDS011;19640;50.944;5.260;2022-12-07T03:26:19;26.92;;;17.10;;
33268;SDS011;19640;50.944;5.260;2022-12-07T03:28:51;26.13;;;16.87;;
33268;SDS011;19640;50.944;5.260;2022-12-07T03:31:21;22.53;;;15.40;;
33268;SDS011;19640;50.944;5.260;2022-12-07T03:34:05;21.02;;;15.82;;
33268;SDS011;19640;50.944;5.260;2022-12-07T03:42:28;25.35;;;18.00;;
33268;SDS011;19640;50.944;5.260;2022-12-07T03:44:55;31.40;;;18.02;;
33268;SDS011;19640;50.944;5.260;2022-12-07T03:47:32;30.95;;;18.63;;
33268;SDS011;19640;50.944;5.260;2022-12-07T03:50:06;25.53;;;17.90;;
33268;SDS011;19640;50.944;5.260;2022-12-07T03:52:44;25.67;;;17.02;;
33268;SDS011;19640;50.944;5.260;2022-12-07T03:55:17;29.23;;;19.30;;
33268;SDS011;19640;50.944;5.260;2022-12-07T03:57:44;34.40;;;18.85;;
33268;SDS011;19640;50.944;5.260;2022-12-07T04:00:13;27.55;;;17.73;;
33268;SDS011;19640;50.944;5.260;2022-12-07T04:02:39;28.38;;;17.50;;
33268;SDS011;19640;50.944;5.260;2022-12-07T04:05:06;24.10;;;16.80;;
33268;SDS011;19640;50.944;5.260;2022-12-07T04:07:32;24.13;;;17.08;;
33268;SDS011;19640;50.944;5.260;2022-12-07T04:09:57;24.67;;;17.60;;
33268;SDS011;19640;50.944;5.260;2022-12-07T04:12:23;22.25;;;15.55;;
33268;SDS011;19640;50.944;5.260;2022-12-07T04:14:49;19.95;;;14.13;;
33268;SDS011;19640;50.944;5.260;2022-12-07T04:17:14;104.72;;;15.15;;
33268;SDS011;19640;50.944;5.260;2022-12-07T04:19:40;40.88;;;13.38;;
33268;SDS011;19640;50.944;5.260;2022-12-07T04:22:06;14.88;;;13.27;;
33268;SDS011;19640;50.944;5.260;2022-12-07T04:24:32;19.52;;;13.25;;
33268;SDS011;19640;50.944;5.260;2022-12-07T04:26:58;24.23;;;13.48;;
33268;SDS011;19640;50.944;5.260;2022-12-07T04:29:24;13.88;;;12.05;;
33268;SDS011;19640;50.944;5.260;2022-12-07T04:31:50;14.50;;;11.30;;
33268;SDS011;19640;50.944;5.260;2022-12-07T04:34:16;13.20;;;11.88;;
33268;SDS011;19640;50.944;5.260;2022-12-07T04:36:42;21.77;;;12.70;;
33268;SDS011;19640;50.944;5.260;2022-12-07T04:39:13;19.73;;;12.05;;
33268;SDS011;19640;50.944;5.260;2022-12-07T04:41:44;16.40;;;11.63;;
33268;SDS011;19640;50.944;5.260;2022-12-07T04:44:10;16.67;;;12.48;;
33268;SDS011;19640;50.944;5.260;2022-12-07T04:46:39;17.60;;;14.88;;
33268;SDS011;19640;50.944;5.260;2022-12-07T04:49:04;22.02;;;15.25;;
33268;SDS011;19640;50.944;5.260;2022-12-07T04:51:30;22.42;;;14.80;;
33268;SDS011;19640;50.944;5.260;2022-12-07T04:53:56;19.38;;;14.68;;
33268;SDS011;19640;50.944;5.260;2022-12-07T04:56:22;19.55;;;15.50;;
33268;SDS011;19640;50.944;5.260;2022-12-07T04:58:48;14.70;;;13.23;;
33268;SDS011;19640;50.944;5.260;2022-12-07T05:01:15;23.15;;;14.18;;
33268;SDS011;19640;50.944;5.260;2022-12-07T05:03:41;20.38;;;13.02;;
33268;SDS011;19640;50.944;5.260;2022-12-07T05:06:07;13.80;;;12.40;;
33268;SDS011;19640;50.944;5.260;2022-12-07T05:08:35;20.02;;;13.25;;
33268;SDS011;19640;50.944;5.260;2022-12-07T05:11:01;23.77;;;14.80;;
33268;SDS011;19640;50.944;5.260;2022-12-07T05:13:27;30.58;;;17.27;;
33268;SDS011;19640;50.944;5.260;2022-12-07T05:15:53;22.17;;;14.68;;
33268;SDS011;19640;50.944;5.260;2022-12-07T05:18:19;17.30;;;14.60;;
33268;SDS011;19640;50.944;5.260;2022-12-07T05:20:45;21.48;;;14.55;;
33268;SDS011;19640;50.944;5.260;2022-12-07T05:23:11;17.38;;;14.93;;
33268;SDS011;19640;50.944;5.260;2022-12-07T05:25:37;19.35;;;15.40;;
33268;SDS011;19640;50.944;5.260;2022-12-07T05:28:03;21.98;;;15.95;;
33268;SDS011;19640;50.944;5.260;2022-12-07T05:30:29;29.10;;;19.35;;
33268;SDS011;19640;50.944;5.260;2022-12-07T05:32:56;27.92;;;16.77;;
33268;SDS011;19640;50.944;5.260;2022-12-07T05:35:21;29.10;;;17.20;;
33268;SDS011;19640;50.944;5.260;2022-12-07T05:37:47;18.33;;;15.00;;
33268;SDS011;19640;50.944;5.260;2022-12-07T05:40:13;33.08;;;15.65;;
33268;SDS011;19640;50.944;5.260;2022-12-07T05:42:39;24.77;;;15.13;;
33268;SDS011;19640;50.944;5.260;2022-12-07T05:45:06;21.33;;;16.40;;
33268;SDS011;19640;50.944;5.260;2022-12-07T05:47:32;21.70;;;16.13;;
33268;SDS011;19640;50.944;5.260;2022-12-07T05:49:58;27.83;;;18.30;;
33268;SDS011;19640;50.944;5.260;2022-12-07T05:52:23;28.48;;;17.23;;
33268;SDS011;19640;50.944;5.260;2022-12-07T05:54:49;20.65;;;16.50;;
33268;SDS011;19640;50.944;5.260;2022-12-07T05:57:15;28.73;;;17.38;;
33268;SDS011;19640;50.944;5.260;2022-12-07T05:59:41;27.23;;;16.83;;
33268;SDS011;19640;50.944;5.260;2022-12-07T06:02:07;23.15;;;16.90;;
33268;SDS011;19640;50.944;5.260;2022-12-07T06:07:05;19.65;;;15.32;;
33268;SDS011;19640;50.944;5.260;2022-12-07T06:09:32;21.67;;;15.82;;
33268;SDS011;19640;50.944;5.260;2022-12-07T06:11:58;18.52;;;14.93;;
33268;SDS011;19640;50.944;5.260;2022-12-07T06:14:43;20.00;;;16.10;;
33268;SDS011;19640;50.944;5.260;2022-12-07T06:17:10;27.77;;;16.42;;
33268;SDS011;19640;50.944;5.260;2022-12-07T06:19:37;24.67;;;16.05;;
33268;SDS011;19640;50.944;5.260;2022-12-07T06:22:03;27.90;;;17.73;;
33268;SDS011;19640;50.944;5.260;2022-12-07T06:24:29;21.95;;;17.08;;
33268;SDS011;19640;50.944;5.260;2022-12-07T06:26:58;31.88;;;18.05;;
33268;SDS011;19640;50.944;5.260;2022-12-07T06:29:23;22.40;;;16.73;;
33268;SDS011;19640;50.944;5.260;2022-12-07T06:31:49;26.08;;;16.40;;
33268;SDS011;19640;50.944;5.260;2022-12-07T06:34:16;23.17;;;15.05;;
33268;SDS011;19640;50.944;5.260;2022-12-07T06:36:44;30.67;;;16.10;;
33268;SDS011;19640;50.944;5.260;2022-12-07T06:39:10;24.30;;;15.07;;
33268;SDS011;19640;50.944;5.260;2022-12-07T06:41:39;22.95;;;15.27;;
33268;SDS011;19640;50.944;5.260;2022-12-07T06:46:43;17.55;;;14.10;;
33268;SDS011;19640;50.944;5.260;2022-12-07T06:49:09;23.48;;;16.08;;
33268;SDS011;19640;50.944;5.260;2022-12-07T06:51:35;22.00;;;15.15;;
33268;SDS011;19640;50.944;5.260;2022-12-07T06:54:02;22.13;;;14.82;;
33268;SDS011;19640;50.944;5.260;2022-12-07T06:56:28;17.58;;;14.63;;
33268;SDS011;19640;50.944;5.260;2022-12-07T06:58:54;18.25;;;13.43;;
33268;SDS011;19640;50.944;5.260;2022-12-07T07:01:20;14.85;;;13.25;;
33268;SDS011;19640;50.944;5.260;2022-12-07T07:03:46;22.92;;;13.32;;
33268;SDS011;19640;50.944;5.260;2022-12-07T07:06:12;17.83;;;14.48;;
33268;SDS011;19640;50.944;5.260;2022-12-07T07:08:38;16.95;;;13.30;;
33268;SDS011;19640;50.944;5.260;2022-12-07T07:11:04;22.58;;;14.57;;
33268;SDS011;19640;50.944;5.260;2022-12-07T07:13:31;22.20;;;14.98;;
33268;SDS011;19640;50.944;5.260;2022-12-07T07:15:57;21.77;;;14.70;;
33268;SDS011;19640;50.944;5.260;2022-12-07T07:18:23;18.30;;;12.82;;
33268;SDS011;19640;50.944;5.260;2022-12-07T07:20:50;32.60;;;12.32;;
33268;SDS011;19640;50.944;5.260;2022-12-07T07:23:16;33.08;;;12.10;;
33268;SDS011;19640;50.944;5.260;2022-12-07T07:25:42;63.55;;;13.07;;
33268;SDS011;19640;50.944;5.260;2022-12-07T07:28:08;42.13;;;13.00;;
33268;SDS011;19640;50.944;5.260;2022-12-07T07:30:33;118.93;;;13.75;;
33268;SDS011;19640;50.944;5.260;2022-12-07T07:33:00;52.47;;;12.73;;
33268;SDS011;19640;50.944;5.260;2022-12-07T07:35:27;52.20;;;10.75;;
33268;SDS011;19640;50.944;5.260;2022-12-07T07:37:54;151.15;;;13.45;;
33268;SDS011;19640;50.944;5.260;2022-12-07T07:40:19;165.52;;;18.95;;
33268;SDS011;19640;50.944;5.260;2022-12-07T07:42:49;221.77;;;12.60;;
33268;SDS011;19640;50.944;5.260;2022-12-07T07:45:15;63.42;;;11.73;;
33268;SDS011;19640;50.944;5.260;2022-12-07T07:47:41;20.65;;;11.43;;
33268;SDS011;19640;50.944;5.260;2022-12-07T07:50:07;45.22;;;14.85;;
33268;SDS011;19640;50.944;5.260;2022-12-07T07:52:33;37.67;;;10.68;;
33268;SDS011;19640;50.944;5.260;2022-12-07T07:54:59;31.58;;;11.20;;
33268;SDS011;19640;50.944;5.260;2022-12-07T07:57:24;88.53;;;12.27;;
33268;SDS011;19640;50.944;5.260;2022-12-07T07:59:50;47.88;;;12.52;;
33268;SDS011;19640;50.944;5.260;2022-12-07T08:02:16;66.07;;;12.63;;
33268;SDS011;19640;50.944;5.260;2022-12-07T08:04:44;17.85;;;11.30;;
33268;SDS011;19640;50.944;5.260;2022-12-07T08:07:10;41.47;;;11.68;;
33268;SDS011;19640;50.944;5.260;2022-12-07T08:09:37;47.85;;;10.85;;
33268;SDS011;19640;50.944;5.260;2022-12-07T08:12:03;11.90;;;10.70;;
33268;SDS011;19640;50.944;5.260;2022-12-07T08:14:29;16.83;;;10.95;;
33268;SDS011;19640;50.944;5.260;2022-12-07T08:16:54;17.50;;;11.93;;
33268;SDS011;19640;50.944;5.260;2022-12-07T08:19:20;13.52;;;12.15;;
33268;SDS011;19640;50.944;5.260;2022-12-07T08:21:46;22.52;;;12.48;;
33268;SDS011;19640;50.944;5.260;2022-12-07T08:24:11;60.55;;;12.43;;
33268;SDS011;19640;50.944;5.260;2022-12-07T08:26:37;38.90;;;13.00;;
33268;SDS011;19640;50.944;5.260;2022-12-07T08:29:03;19.63;;;13.43;;
33268;SDS011;19640;50.944;5.260;2022-12-07T08:31:28;44.83;;;12.93;;
33268;SDS011;19640;50.944;5.260;2022-12-07T08:33:54;18.45;;;12.70;;
33268;SDS011;19640;50.944;5.260;2022-12-07T08:36:20;47.40;;;13.80;;
33268;SDS011;19640;50.944;5.260;2022-12-07T08:38:47;55.70;;;14.32;;
33268;SDS011;19640;50.944;5.260;2022-12-07T08:41:14;19.90;;;14.27;;
33268;SDS011;19640;50.944;5.260;2022-12-07T08:43:39;16.27;;;14.55;;
33268;SDS011;19640;50.944;5.260;2022-12-07T08:46:06;21.80;;;14.75;;
33268;SDS011;19640;50.944;5.260;2022-12-07T08:48:34;25.75;;;16.00;;
33268;SDS011;19640;50.944;5.260;2022-12-07T08:51:03;22.98;;;15.95;;
33268;SDS011;19640;50.944;5.260;2022-12-07T08:53:29;23.13;;;16.17;;
33268;SDS011;19640;50.944;5.260;2022-12-07T08:55:56;25.55;;;16.85;;
33268;SDS011;19640;50.944;5.260;2022-12-07T08:58:23;26.45;;;16.70;;
33268;SDS011;19640;50.944;5.260;2022-12-07T09:00:48;23.45;;;17.38;;
33268;SDS011;19640;50.944;5.260;2022-12-07T09:03:14;28.23;;;16.45;;
33268;SDS011;19640;50.944;5.260;2022-12-07T09:05:40;27.13;;;16.13;;
33268;SDS011;19640;50.944;5.260;2022-12-07T09:08:05;24.65;;;16.60;;
33268;SDS011;19640;50.944;5.260;2022-12-07T09:10:32;32.55;;;18.80;;
33268;SDS011;19640;50.944;5.260;2022-12-07T09:12:57;33.10;;;19.17;;
33268;SDS011;19640;50.944;5.260;2022-12-07T09:15:29;34.45;;;19.52;;
33268;SDS011;19640;50.944;5.260;2022-12-07T09:17:55;34.22;;;17.88;;
33268;SDS011;19640;50.944;5.260;2022-12-07T09:20:20;22.52;;;16.50;;
33268;SDS011;19640;50.944;5.260;2022-12-07T09:22:46;25.52;;;17.75;;
33268;SDS011;19640;50.944;5.260;2022-12-07T09:25:12;24.13;;;16.35;;
33268;SDS011;19640;50.944;5.260;2022-12-07T09:27:38;29.15;;;16.50;;
33268;SDS011;19640;50.944;5.260;2022-12-07T09:30:04;20.90;;;14.77;;
33268;SDS011;19640;50.944;5.260;2022-12-07T09:32:31;25.70;;;15.40;;
33268;SDS011;19640;50.944;5.260;2022-12-07T09:34:56;22.73;;;13.75;;
33268;SDS011;19640;50.944;5.260;2022-12-07T09:37:22;21.13;;;13.32;;
33268;SDS011;19640;50.944;5.260;2022-12-07T09:39:48;17.70;;;12.43;;
33268;SDS011;19640;50.944;5.260;2022-12-07T09:42:56;14.80;;;10.90;;
33268;SDS011;19640;50.944;5.260;2022-12-07T09:45:11;18.42;;;11.65;;
33268;SDS011;19640;50.944;5.260;2022-12-07T09:47:49;21.88;;;12.82;;
33268;SDS011;19640;50.944;5.260;2022-12-07T09:50:16;18.35;;;10.52;;
33268;SDS011;19640;50.944;5.260;2022-12-07T09:52:45;19.60;;;10.45;;
33268;SDS011;19640;50.944;5.260;2022-12-07T09:55:13;18.23;;;10.60;;
33268;SDS011;19640;50.944;5.260;2022-12-07T09:57:53;15.43;;;9.73;;
33268;SDS011;19640;50.944;5.260;2022-12-07T10:00:25;30.25;;;11.25;;
33268;SDS011;19640;50.944;5.260;2022-12-07T10:02:57;14.35;;;10.50;;
33268;SDS011;19640;50.944;5.260;2022-12-07T10:05:29;15.07;;;11.38;;
33268;SDS011;19640;50.944;5.260;2022-12-07T10:08:02;16.83;;;11.23;;
33268;SDS011;19640;50.944;5.260;2022-12-07T10:10:32;19.75;;;12.52;;
33268;SDS011;19640;50.944;5.260;2022-12-07T10:18:19;16.35;;;11.57;;
33268;SDS011;19640;50.944;5.260;2022-12-07T10:20:46;16.40;;;11.40;;
33268;SDS011;19640;50.944;5.260;2022-12-07T10:23:16;12.27;;;10.60;;
33268;SDS011;19640;50.944;5.260;2022-12-07T10:25:43;16.02;;;10.70;;
33268;SDS011;19640;50.944;5.260;2022-12-07T10:28:11;13.75;;;9.35;;
33268;SDS011;19640;50.944;5.260;2022-12-07T10:30:59;14.20;;;8.65;;
33268;SDS011;19640;50.944;5.260;2022-12-07T10:33:33;11.25;;;7.45;;
33268;SDS011;19640;50.944;5.260;2022-12-07T10:36:24;15.05;;;7.53;;
33268;SDS011;19640;50.944;5.260;2022-12-07T10:39:10;12.32;;;7.82;;
33268;SDS011;19640;50.944;5.260;2022-12-07T10:44:21;10.98;;;7.47;;
33268;SDS011;19640;50.944;5.260;2022-12-07T10:50:01;13.05;;;7.30;;
33268;SDS011;19640;50.944;5.260;2022-12-07T10:52:55;9.32;;;7.10;;
33268;SDS011;19640;50.944;5.260;2022-12-07T11:01:32;12.30;;;6.07;;
33268;SDS011;19640;50.944;5.260;2022-12-07T11:06:57;14.48;;;6.28;;
33268;SDS011;19640;50.944;5.260;2022-12-07T11:09:47;10.43;;;6.35;;
33268;SDS011;19640;50.944;5.260;2022-12-07T11:20:29;12.35;;;6.15;;
33268;SDS011;19640;50.944;5.260;2022-12-07T11:23:03;8.05;;;6.05;;
33268;SDS011;19640;50.944;5.260;2022-12-07T11:25:39;11.43;;;6.35;;
33268;SDS011;19640;50.944;5.260;2022-12-07T11:28:14;10.88;;;5.78;;
33268;SDS011;19640;50.944;5.260;2022-12-07T11:33:27;8.43;;;4.82;;
33268;SDS011;19640;50.944;5.260;2022-12-07T11:38:47;8.77;;;4.97;;
33268;SDS011;19640;50.944;5.260;2022-12-07T11:41:20;6.93;;;4.57;;
33268;SDS011;19640;50.944;5.260;2022-12-07T11:43:51;5.13;;;4.22;;
33268;SDS011;19640;50.944;5.260;2022-12-07T11:46:21;8.60;;;4.68;;
33268;SDS011;19640;50.944;5.260;2022-12-07T11:48:55;7.20;;;4.85;;
33268;SDS011;19640;50.944;5.260;2022-12-07T11:51:29;9.02;;;4.10;;
33268;SDS011;19640;50.944;5.260;2022-12-07T11:54:03;11.20;;;4.78;;
33268;SDS011;19640;50.944;5.260;2022-12-07T11:56:37;12.65;;;4.55;;
33268;SDS011;19640;50.944;5.260;2022-12-07T11:59:08;6.82;;;3.88;;
33268;SDS011;19640;50.944;5.260;2022-12-07T12:06:58;8.35;;;4.40;;
33268;SDS011;19640;50.944;5.260;2022-12-07T12:09:26;8.13;;;3.70;;
33268;SDS011;19640;50.944;5.260;2022-12-07T12:14:47;11.80;;;4.22;;
33268;SDS011;19640;50.944;5.260;2022-12-07T12:17:29;10.80;;;5.18;;
33268;SDS011;19640;50.944;5.260;2022-12-07T12:20:29;6.53;;;3.45;;
33268;SDS011;19640;50.944;5.260;2022-12-07T12:25:46;5.45;;;3.25;;
33268;SDS011;19640;50.944;5.260;2022-12-07T12:33:59;6.47;;;3.75;;
33268;SDS011;19640;50.944;5.260;2022-12-07T12:39:12;6.45;;;3.15;;
33268;SDS011;19640;50.944;5.260;2022-12-07T12:46:45;6.20;;;2.80;;
33268;SDS011;19640;50.944;5.260;2022-12-07T12:54:22;5.00;;;2.45;;
33268;SDS011;19640;50.944;5.260;2022-12-07T12:59:29;5.65;;;2.75;;
33268;SDS011;19640;50.944;5.260;2022-12-07T13:02:19;6.50;;;2.45;;
33268;SDS011;19640;50.944;5.260;2022-12-07T13:08:18;2.85;;;2.13;;
33268;SDS011;19640;50.944;5.260;2022-12-07T13:10:45;5.55;;;2.67;;
33268;SDS011;19640;50.944;5.260;2022-12-07T13:18:24;4.40;;;2.20;;
33268;SDS011;19640;50.944;5.260;2022-12-07T13:23:37;6.72;;;2.33;;
33268;SDS011;19640;50.944;5.260;2022-12-07T13:26:27;4.57;;;2.38;;
33268;SDS011;19640;50.944;5.260;2022-12-07T13:31:48;10.90;;;1.92;;
33268;SDS011;19640;50.944;5.260;2022-12-07T13:34:33;5.80;;;1.38;;
33268;SDS011;19640;50.944;5.260;2022-12-07T13:37:10;2.53;;;1.00;;
33268;SDS011;19640;50.944;5.260;2022-12-07T13:39:55;2.80;;;0.88;;
33268;SDS011;19640;50.944;5.260;2022-12-07T13:42:27;3.08;;;1.00;;
33268;SDS011;19640;50.944;5.260;2022-12-07T13:44:57;4.35;;;1.30;;
33268;SDS011;19640;50.944;5.260;2022-12-07T13:50:24;4.68;;;1.35;;
33268;SDS011;19640;50.944;5.260;2022-12-07T13:52:54;3.38;;;1.67;;
33268;SDS011;19640;50.944;5.260;2022-12-07T13:55:21;6.85;;;2.08;;
33268;SDS011;19640;50.944;5.260;2022-12-07T13:57:47;9.10;;;2.35;;
33268;SDS011;19640;50.944;5.260;2022-12-07T14:00:17;6.07;;;2.30;;
33268;SDS011;19640;50.944;5.260;2022-12-07T14:02:58;4.95;;;2.75;;
33268;SDS011;19640;50.944;5.260;2022-12-07T14:05:29;9.32;;;3.03;;
33268;SDS011;19640;50.944;5.260;2022-12-07T14:10:25;5.47;;;3.42;;
33268;SDS011;19640;50.944;5.260;2022-12-07T14:12:59;6.85;;;3.97;;
33268;SDS011;19640;50.944;5.260;2022-12-07T14:15:30;9.68;;;4.03;;
33268;SDS011;19640;50.944;5.260;2022-12-07T14:20:40;8.35;;;4.10;;
33268;SDS011;19640;50.944;5.260;2022-12-07T14:23:21;5.28;;;3.80;;
33268;SDS011;19640;50.944;5.260;2022-12-07T14:25:50;8.75;;;4.32;;
33268;SDS011;19640;50.944;5.260;2022-12-07T14:28:28;8.60;;;4.72;;
33268;SDS011;19640;50.944;5.260;2022-12-07T14:30:56;11.05;;;5.20;;
33268;SDS011;19640;50.944;5.260;2022-12-07T14:33:23;10.55;;;4.72;;
33268;SDS011;19640;50.944;5.260;2022-12-07T14:35:49;9.88;;;4.65;;
33268;SDS011;19640;50.944;5.260;2022-12-07T14:38:15;8.93;;;4.93;;
33268;SDS011;19640;50.944;5.260;2022-12-07T14:40:43;7.95;;;4.65;;
33268;SDS011;19640;50.944;5.260;2022-12-07T14:43:10;6.05;;;4.38;;
33268;SDS011;19640;50.944;5.260;2022-12-07T14:45:38;7.82;;;4.55;;
33268;SDS011;19640;50.944;5.260;2022-12-07T14:48:05;9.05;;;4.85;;
33268;SDS011;19640;50.944;5.260;2022-12-07T14:50:35;9.05;;;4.70;;
33268;SDS011;19640;50.944;5.260;2022-12-07T14:53:08;8.73;;;5.13;;
33268;SDS011;19640;50.944;5.260;2022-12-07T14:55:38;6.57;;;4.30;;
33268;SDS011;19640;50.944;5.260;2022-12-07T14:58:04;5.93;;;4.13;;
33268;SDS011;19640;50.944;5.260;2022-12-07T15:00:29;9.43;;;4.45;;
33268;SDS011;19640;50.944;5.260;2022-12-07T15:02:55;8.32;;;4.38;;
33268;SDS011;19640;50.944;5.260;2022-12-07T15:05:21;5.57;;;3.95;;
33268;SDS011;19640;50.944;5.260;2022-12-07T15:07:47;6.78;;;4.18;;
33268;SDS011;19640;50.944;5.260;2022-12-07T15:12:46;7.90;;;4.57;;
33268;SDS011;19640;50.944;5.260;2022-12-07T15:15:12;6.82;;;4.80;;
33268;SDS011;19640;50.944;5.260;2022-12-07T15:17:38;5.22;;;4.70;;
33268;SDS011;19640;50.944;5.260;2022-12-07T15:20:04;6.65;;;4.70;;
33268;SDS011;19640;50.944;5.260;2022-12-07T15:22:32;9.63;;;5.13;;
33268;SDS011;19640;50.944;5.260;2022-12-07T15:24:58;7.43;;;4.22;;
33268;SDS011;19640;50.944;5.260;2022-12-07T15:27:24;6.53;;;4.18;;
33268;SDS011;19640;50.944;5.260;2022-12-07T15:29:49;4.32;;;3.88;;
33268;SDS011;19640;50.944;5.260;2022-12-07T15:32:15;6.43;;;5.18;;
33268;SDS011;19640;50.944;5.260;2022-12-07T15:34:40;7.50;;;4.75;;
33268;SDS011;19640;50.944;5.260;2022-12-07T15:37:07;7.95;;;5.13;;
33268;SDS011;19640;50.944;5.260;2022-12-07T15:39:33;12.00;;;5.60;;
33268;SDS011;19640;50.944;5.260;2022-12-07T15:41:59;9.40;;;5.25;;
33268;SDS011;19640;50.944;5.260;2022-12-07T15:44:25;6.28;;;5.13;;
33268;SDS011;19640;50.944;5.260;2022-12-07T15:47:09;5.45;;;3.95;;
33268;SDS011;19640;50.944;5.260;2022-12-07T15:49:35;5.50;;;3.00;;
33268;SDS011;19640;50.944;5.260;2022-12-07T15:52:00;6.45;;;3.70;;
33268;SDS011;19640;50.944;5.260;2022-12-07T15:54:27;4.75;;;3.15;;
33268;SDS011;19640;50.944;5.260;2022-12-07T15:56:54;5.40;;;3.00;;
33268;SDS011;19640;50.944;5.260;2022-12-07T15:59:20;4.57;;;2.92;;
33268;SDS011;19640;50.944;5.260;2022-12-07T16:01:46;4.95;;;3.08;;
33268;SDS011;19640;50.944;5.260;2022-12-07T16:04:11;4.07;;;2.78;;
33268;SDS011;19640;50.944;5.260;2022-12-07T16:06:37;3.30;;;2.53;;
33268;SDS011;19640;50.944;5.260;2022-12-07T16:09:03;4.47;;;1.80;;
33268;SDS011;19640;50.944;5.260;2022-12-07T16:11:28;2.35;;;2.05;;
33268;SDS011;19640;50.944;5.260;2022-12-07T16:13:54;3.35;;;2.22;;
33268;SDS011;19640;50.944;5.260;2022-12-07T16:16:20;5.60;;;2.30;;
33268;SDS011;19640;50.944;5.260;2022-12-07T16:18:47;3.30;;;2.75;;
33268;SDS011;19640;50.944;5.260;2022-12-07T16:21:15;3.33;;;2.65;;
33268;SDS011;19640;50.944;5.260;2022-12-07T16:23:41;3.88;;;2.75;;
33268;SDS011;19640;50.944;5.260;2022-12-07T16:26:08;6.20;;;3.03;;
33268;SDS011;19640;50.944;5.260;2022-12-07T16:28:37;6.30;;;3.13;;
33268;SDS011;19640;50.944;5.260;2022-12-07T16:31:03;4.85;;;3.88;;
33268;SDS011;19640;50.944;5.260;2022-12-07T16:33:32;4.82;;;4.35;;
33268;SDS011;19640;50.944;5.260;2022-12-07T16:35:59;4.22;;;3.88;;
33268;SDS011;19640;50.944;5.260;2022-12-07T16:38:25;5.82;;;4.22;;
33268;SDS011;19640;50.944;5.260;2022-12-07T16:40:51;4.35;;;3.85;;
33268;SDS011;19640;50.944;5.260;2022-12-07T16:43:16;7.18;;;4.25;;
33268;SDS011;19640;50.944;5.260;2022-12-07T16:45:42;6.07;;;4.13;;
33268;SDS011;19640;50.944;5.260;2022-12-07T16:48:07;4.70;;;3.88;;
33268;SDS011;19640;50.944;5.260;2022-12-07T16:50:33;6.03;;;3.80;;